createdAt,value
2018-06-28T00:00:12.252Z,3.27
2018-06-28T00:05:15.576Z,2.60
2018-06-28T00:10:18.925Z,3.00
2018-06-28T00:15:22.261Z,2.50
2018-06-28T00:20:25.627Z,2.40
2018-06-28T00:25:28.988Z,2.40
2018-06-28T00:30:32.843Z,2.50
2018-06-28T00:35:36.329Z,2.17
2018-06-28T00:40:39.877Z,2.10
2018-06-28T00:45:43.383Z,2.27
2018-06-28T00:50:46.803Z,1.70
2018-06-28T00:55:50.151Z,2.10
2018-06-28T01:00:53.449Z,1.83
2018-06-28T01:05:56.668Z,2.27
2018-06-28T01:10:59.945Z,2.00
2018-06-28T01:16:03.214Z,1.80
2018-06-28T01:21:06.556Z,1.93
2018-06-28T01:26:09.925Z,1.77
2018-06-28T01:31:13.221Z,2.10
2018-06-28T01:36:16.467Z,2.20
2018-06-28T01:41:20.246Z,1.90
2018-06-28T01:46:23.651Z,1.70
2018-06-28T01:51:27.392Z,2.20
2018-06-28T01:56:30.681Z,2.30
2018-06-28T02:01:34.552Z,1.70
2018-06-28T02:06:37.785Z,2.00
2018-06-28T02:11:41.830Z,1.87
2018-06-28T02:16:45.206Z,2.00
2018-06-28T02:21:48.889Z,1.70
2018-06-28T02:26:52.174Z,1.70
2018-06-28T02:31:56.002Z,1.50
2018-06-28T02:36:59.283Z,1.73
2018-06-28T02:42:02.624Z,1.50
2018-06-28T02:47:05.914Z,1.70
2018-06-28T02:52:09.241Z,1.67
2018-06-28T02:57:12.500Z,1.67
2018-06-28T03:02:16.072Z,1.97
2018-06-28T03:07:19.346Z,1.80
2018-06-28T03:12:22.632Z,1.60
2018-06-28T03:17:25.817Z,1.90
2018-06-28T03:22:29.038Z,1.83
2018-06-28T03:27:32.324Z,1.67
2018-06-28T03:32:35.777Z,1.20
2018-06-28T03:37:39.140Z,1.63
2018-06-28T03:42:42.097Z,1.50
2018-06-28T03:47:45.337Z,1.50
2018-06-28T03:52:48.910Z,1.20
2018-06-28T03:57:52.339Z,1.70
2018-06-28T04:02:55.971Z,1.60
2018-06-28T04:07:59.339Z,1.50
2018-06-28T04:13:02.546Z,1.60
2018-06-28T04:18:05.811Z,1.60
2018-06-28T04:23:09.089Z,1.50
2018-06-28T04:28:12.363Z,1.00
2018-06-28T04:33:16.012Z,1.40
2018-06-28T04:38:23.351Z,1.20
2018-06-28T04:43:26.597Z,1.37
2018-06-28T04:48:30.233Z,1.40
2018-06-28T04:53:33.655Z,1.07
2018-06-28T04:58:36.885Z,1.20
2018-06-28T05:03:40.317Z,1.50
2018-06-28T05:08:43.656Z,1.00
2018-06-28T05:13:46.869Z,1.10
2018-06-28T05:18:50.457Z,1.20
2018-06-28T05:23:53.724Z,1.10
2018-06-28T05:28:57.928Z,1.20
2018-06-28T05:34:01.826Z,1.10
2018-06-28T05:39:08.153Z,1.00
2018-06-28T05:44:11.437Z,1.20
2018-06-28T05:49:14.760Z,1.00
2018-06-28T05:54:18.170Z,1.00
2018-06-28T05:59:21.584Z,1.00
2018-06-28T06:04:25.079Z,0.97
2018-06-28T06:09:28.354Z,1.00
2018-06-28T06:14:31.903Z,1.20
2018-06-28T06:19:35.179Z,1.13
2018-06-28T06:24:38.413Z,1.30
2018-06-28T06:29:41.720Z,0.90
2018-06-28T06:34:45.292Z,1.10
2018-06-28T06:39:48.666Z,1.20
2018-06-28T06:44:52.390Z,1.57
2018-06-28T06:49:55.990Z,1.60
2018-06-28T06:54:59.720Z,1.43
2018-06-28T07:00:03.000Z,1.60
2018-06-28T07:05:06.545Z,1.70
2018-06-28T07:10:10.253Z,1.47
2018-06-28T07:15:14.101Z,1.97
2018-06-28T07:20:17.572Z,2.00
2018-06-28T07:25:21.531Z,1.63
2018-06-28T07:30:24.835Z,1.73
2018-06-28T07:35:29.753Z,1.67
2018-06-28T07:40:33.065Z,1.50
2018-06-28T07:45:36.423Z,1.70
2018-06-28T07:50:39.906Z,1.67
2018-06-28T07:55:43.486Z,1.83
2018-06-28T08:00:46.775Z,1.43
2018-06-28T08:05:50.206Z,1.50
2018-06-28T08:10:54.417Z,1.90
2018-06-28T08:15:58.343Z,1.70
2018-06-28T08:21:02.029Z,1.73
2018-06-28T08:26:05.655Z,1.63
2018-06-28T08:31:09.371Z,1.80
2018-06-28T08:36:12.803Z,2.37
2018-06-28T08:41:16.361Z,2.33
2018-06-28T08:46:19.688Z,2.30
2018-06-28T08:51:23.309Z,2.33
2018-06-28T08:56:26.798Z,2.37
2018-06-28T09:01:30.760Z,2.40
2018-06-28T09:06:34.349Z,1.97
2018-06-28T09:11:37.768Z,2.00
2018-06-28T09:16:41.294Z,1.90
2018-06-28T09:21:44.706Z,2.07
2018-06-28T09:26:48.896Z,2.53
2018-06-28T09:31:52.330Z,2.50
2018-06-28T09:36:55.674Z,2.90
2018-06-28T09:41:59.166Z,2.63
2018-06-28T09:47:02.530Z,3.03
2018-06-28T09:52:06.014Z,2.20
2018-06-28T09:57:09.656Z,2.57
2018-06-28T10:02:12.972Z,2.70
2018-06-28T10:07:16.294Z,2.47
2018-06-28T10:12:19.914Z,2.83
2018-06-28T10:17:23.379Z,2.77
2018-06-28T10:22:26.809Z,2.50
2018-06-28T10:27:30.197Z,2.83
2018-06-28T10:32:33.492Z,2.93
2018-06-28T10:37:37.146Z,2.97
2018-06-28T10:42:40.419Z,2.40
2018-06-28T10:47:43.985Z,2.73
2018-06-28T10:52:47.281Z,2.83
2018-06-28T10:57:50.758Z,2.40
2018-06-28T11:02:54.024Z,2.87
2018-06-28T11:07:57.570Z,2.90
2018-06-28T11:13:01.165Z,2.60
2018-06-28T11:18:04.563Z,2.90
2018-06-28T11:23:08.118Z,2.57
2018-06-28T11:28:11.515Z,3.07
2018-06-28T11:33:14.845Z,3.47
2018-06-28T11:38:21.182Z,2.93
2018-06-28T11:43:24.512Z,3.70
2018-06-28T11:48:28.536Z,3.43
2018-06-28T11:53:31.943Z,3.93
2018-06-28T11:58:36.609Z,3.70
2018-06-28T12:03:41.439Z,3.10
2018-06-28T12:08:45.495Z,3.03
2018-06-28T12:13:48.879Z,3.03
2018-06-28T12:18:52.683Z,2.93
2018-06-28T12:23:57.445Z,3.30
2018-06-28T12:29:01.961Z,3.27
2018-06-28T12:34:05.938Z,2.70
2018-06-28T12:39:12.249Z,3.17
2018-06-28T12:44:16.880Z,3.03
2018-06-28T12:49:20.208Z,2.90
2018-06-28T12:54:23.846Z,2.97
2018-06-28T12:59:27.170Z,3.27
2018-06-28T13:04:30.415Z,2.77
2018-06-28T13:09:33.732Z,2.50
2018-06-28T13:14:37.102Z,2.23
2018-06-28T13:19:40.453Z,2.20
2018-06-28T13:24:43.821Z,3.00
2018-06-28T13:29:47.361Z,2.73
2018-06-28T13:34:51.059Z,2.80
2018-06-28T13:39:54.419Z,2.43
2018-06-28T13:44:57.914Z,2.90
2018-06-28T13:50:02.180Z,3.10
2018-06-28T13:55:05.999Z,2.40
2018-06-28T14:00:09.436Z,2.20
2018-06-28T14:05:12.811Z,2.57
2018-06-28T14:10:16.234Z,2.40
2018-06-28T14:15:20.606Z,2.30
2018-06-28T14:20:23.970Z,2.53
2018-06-28T14:25:27.518Z,2.37
2018-06-28T14:30:30.869Z,2.53
2018-06-28T14:35:34.594Z,2.57
2018-06-28T14:40:38.508Z,2.37
2018-06-28T14:45:41.916Z,2.70
2018-06-28T14:50:45.269Z,2.40
2018-06-28T14:55:49.833Z,2.67
2018-06-28T15:00:53.192Z,2.40
2018-06-28T15:05:57.108Z,2.40
2018-06-28T15:11:00.401Z,2.70
2018-06-28T15:16:03.671Z,2.20
2018-06-28T15:21:06.908Z,2.53
2018-06-28T15:26:10.249Z,2.40
2018-06-28T15:31:13.856Z,2.33
2018-06-28T15:36:17.552Z,2.47
2018-06-28T15:41:21.299Z,2.10
2018-06-28T15:46:24.548Z,2.20
2018-06-28T15:51:28.477Z,1.87
2018-06-28T15:56:31.832Z,2.47
2018-06-28T16:01:35.338Z,2.03
2018-06-28T16:06:38.731Z,1.90
2018-06-28T16:11:42.211Z,2.10
2018-06-28T16:16:45.715Z,1.40
2018-06-28T16:21:49.042Z,1.70
2018-06-28T16:26:52.543Z,1.50
2018-06-28T16:31:55.905Z,1.70
2018-06-28T16:36:59.178Z,1.40
2018-06-28T16:42:02.937Z,1.77
2018-06-28T16:47:06.411Z,1.60
2018-06-28T16:52:10.197Z,1.50
2018-06-28T16:57:13.954Z,1.50
2018-06-28T17:02:17.367Z,1.80
2018-06-28T17:07:20.607Z,1.37
2018-06-28T17:12:24.587Z,1.90
2018-06-28T17:17:27.834Z,1.50
2018-06-28T17:22:31.470Z,1.60
2018-06-28T17:27:34.744Z,1.80
2018-06-28T17:32:38.177Z,1.00
2018-06-28T17:37:41.794Z,1.33
2018-06-28T17:42:45.658Z,1.23
2018-06-28T17:47:49.506Z,1.30
2018-06-28T17:52:53.136Z,1.03
2018-06-28T17:57:56.346Z,1.50
2018-06-28T18:02:59.545Z,1.40
2018-06-28T18:08:02.966Z,1.20
2018-06-28T18:13:06.632Z,1.57
2018-06-28T18:18:09.927Z,1.30
2018-06-28T18:23:13.174Z,1.10
2018-06-28T18:28:16.662Z,1.40
2018-06-28T18:33:19.844Z,1.30
2018-06-28T18:38:23.136Z,1.60
2018-06-28T18:43:26.645Z,1.23
2018-06-28T18:48:29.902Z,1.20
2018-06-28T18:53:33.324Z,1.00
2018-06-28T18:58:36.634Z,1.23
2018-06-28T19:03:39.946Z,1.50
2018-06-28T19:08:43.338Z,1.17
2018-06-28T19:13:52.049Z,1.30
2018-06-28T19:18:55.306Z,2.03
2018-06-28T19:23:59.798Z,2.53
2018-06-28T19:29:08.732Z,2.40
2018-06-28T19:34:12.631Z,2.93
2018-06-28T19:39:21.467Z,2.57
2018-06-28T19:44:25.275Z,2.80
2018-06-28T19:49:34.092Z,2.73
2018-06-28T19:54:37.362Z,2.70
2018-06-28T19:59:46.239Z,2.87
2018-06-28T20:04:49.541Z,2.80
2018-06-28T20:09:52.985Z,2.70
2018-06-28T20:15:02.023Z,2.57
2018-06-28T20:20:10.534Z,2.63
2018-06-28T20:25:13.934Z,2.33
2018-06-28T20:30:23.539Z,2.60
2018-06-28T20:35:26.873Z,2.50
2018-06-28T20:40:30.171Z,2.60
2018-06-28T20:45:33.797Z,3.17
2018-06-28T20:50:37.135Z,2.80
2018-06-28T20:55:40.669Z,2.80
2018-06-28T21:00:44.191Z,3.07
2018-06-28T21:05:47.572Z,3.43
2018-06-28T21:10:51.213Z,3.73
2018-06-28T21:15:54.419Z,3.70
2018-06-28T21:20:58.258Z,5.70
2018-06-28T21:26:01.612Z,5.50
2018-06-28T21:31:05.125Z,6.60
2018-06-28T21:36:08.386Z,4.90
2018-06-28T21:41:11.735Z,4.10
2018-06-28T21:46:15.009Z,3.60
2018-06-28T21:51:18.257Z,3.50
2018-06-28T21:56:21.777Z,3.13
2018-06-28T22:01:25.149Z,3.73
2018-06-28T22:06:28.746Z,3.40
2018-06-28T22:11:32.083Z,3.40
2018-06-28T22:16:35.334Z,4.70
2018-06-28T22:21:39.215Z,3.20
2018-06-28T22:26:43.024Z,4.27
2018-06-28T22:31:46.334Z,3.47
2018-06-28T22:36:49.606Z,3.23
2018-06-28T22:41:53.117Z,2.90
2018-06-28T22:46:56.668Z,3.00
2018-06-28T22:52:00.044Z,3.23
2018-06-28T22:57:04.326Z,3.00
2018-06-28T23:02:07.812Z,2.80
2018-06-28T23:07:11.011Z,2.33
2018-06-28T23:12:14.510Z,2.73
2018-06-28T23:17:17.854Z,2.60
2018-06-28T23:22:39.087Z,2.73
2018-06-28T23:27:43.301Z,2.40
2018-06-28T23:32:47.041Z,3.13
2018-06-28T23:37:50.766Z,3.17
2018-06-28T23:42:54.410Z,2.37
2018-06-28T23:47:57.684Z,2.40
2018-06-28T23:53:00.903Z,2.67
2018-06-28T23:58:04.151Z,2.60
